Time;durP1;ratioP1;P1;durP2;ratioP2;P2;SDS_P1;SDS_P2;PMS_P1;PMS_P2;Temp;Humidity;BMP_temperature;BMP_pressure;BME280_temperature;BME280_humidity;BME280_pressure;Samples;Min_cycle;Max_cycle;Signal;HPM_P1;HPM_P2
2022/03/08 00:01:49;;;;;;;19.40;9.75;;;2.00;34.70;;;;;;2333729;55;20935;-64
2022/03/08 00:04:16;;;;;;;21.27;10.65;;;2.00;34.70;;;;;;2313545;55;21011;-63
2022/03/08 00:06:42;;;;;;;18.87;10.07;;;2.10;34.80;;;;;;2286524;54;21026;-66
2022/03/08 00:09:08;;;;;;;20.88;11.27;;;2.10;34.80;;;;;;2286954;55;20930;-64
2022/03/08 00:11:34;;;;;;;19.73;10.40;;;2.10;34.90;;;;;;2290151;55;21050;-65
2022/03/08 00:14:00;;;;;;;19.85;10.35;;;2.20;35.00;;;;;;2383188;54;21591;-64
2022/03/08 00:16:27;;;;;;;18.45;10.18;;;2.20;35.00;;;;;;2287423;54;20970;-65
2022/03/08 00:18:53;;;;;;;20.73;10.35;;;2.30;35.00;;;;;;2286255;54;20927;-64
2022/03/08 00:21:19;;;;;;;17.27;9.80;;;2.40;35.10;;;;;;2287858;55;21429;-64
2022/03/08 00:23:47;;;;;;;19.58;10.18;;;2.40;35.00;;;;;;2287375;56;21975;-64
2022/03/08 00:26:13;;;;;;;18.12;9.50;;;2.50;35.00;;;;;;2287301;55;21444;-63
2022/03/08 00:28:39;;;;;;;17.77;8.75;;;2.50;34.90;;;;;;2286632;55;20919;-64
2022/03/08 00:31:06;;;;;;;16.10;9.15;;;2.60;34.80;;;;;;2259351;55;21061;-64
2022/03/08 00:33:32;;;;;;;16.15;9.07;;;2.60;34.70;;;;;;2282046;55;21555;-64
2022/03/08 00:36:00;;;;;;;15.05;8.77;;;2.70;34.70;;;;;;2250629;55;20965;-64
2022/03/08 00:38:27;;;;;;;16.45;8.85;;;2.70;34.70;;;;;;2275712;55;21068;-64
2022/03/08 00:40:53;;;;;;;16.60;9.05;;;2.70;34.60;;;;;;2253592;55;20965;-64
2022/03/08 00:43:20;;;;;;;15.27;8.05;;;2.80;34.60;;;;;;2274788;55;21076;-65
2022/03/08 00:45:46;;;;;;;15.52;8.75;;;2.80;34.60;;;;;;2265730;55;21574;-65
2022/03/08 00:48:12;;;;;;;17.58;9.80;;;2.90;34.60;;;;;;2464270;55;20928;-63
2022/03/08 00:50:39;;;;;;;15.15;7.72;;;2.90;34.50;;;;;;2363865;55;21806;-63
2022/03/08 00:53:05;;;;;;;16.92;9.38;;;3.00;34.60;;;;;;2256363;55;21577;-65
2022/03/08 00:55:32;;;;;;;14.70;8.45;;;3.00;34.50;;;;;;2256667;55;21060;-63
2022/03/08 00:57:58;;;;;;;13.30;8.15;;;3.10;34.50;;;;;;2379750;55;21040;-64
2022/03/08 01:00:26;;;;;;;14.55;8.27;;;3.10;34.40;;;;;;2265102;55;21433;-63
2022/03/08 01:02:52;;;;;;;15.75;8.15;;;3.10;34.30;;;;;;2265499;55;21024;-64
2022/03/08 01:05:24;;;;;;;16.95;8.68;;;3.20;34.30;;;;;;2256773;55;20972;-64
2022/03/08 01:07:52;;;;;;;14.85;8.23;;;3.10;34.20;;;;;;2256609;55;20968;-65
2022/03/08 01:10:19;;;;;;;13.38;7.90;;;3.20;34.20;;;;;;2270953;55;21034;-64
2022/03/08 01:12:46;;;;;;;15.48;7.45;;;3.10;34.10;;;;;;2256658;55;20966;-65
2022/03/08 01:15:12;;;;;;;15.07;8.43;;;3.10;34.00;;;;;;2256368;55;21064;-65
2022/03/08 01:17:41;;;;;;;15.75;8.07;;;3.10;34.00;;;;;;2256349;55;21030;-65
2022/03/08 01:20:08;;;;;;;15.30;8.02;;;3.00;33.90;;;;;;2256910;55;21016;-65
2022/03/08 01:22:35;;;;;;;13.93;7.10;;;3.00;33.90;;;;;;2265766;55;21880;-65
2022/03/08 01:25:01;;;;;;;14.25;7.50;;;2.90;33.80;;;;;;2265207;55;21132;-64
2022/03/08 01:27:30;;;;;;;16.12;7.97;;;2.90;33.80;;;;;;2257110;55;21119;-64
2022/03/08 01:29:56;;;;;;;13.60;7.78;;;2.90;33.80;;;;;;2255512;55;21765;-65
2022/03/08 01:32:22;;;;;;;16.23;7.37;;;2.80;33.80;;;;;;2256266;55;20985;-63
2022/03/08 01:34:49;;;;;;;16.08;7.93;;;2.80;33.80;;;;;;2343607;55;20985;-65
2022/03/08 01:37:15;;;;;;;15.18;7.20;;;2.70;33.80;;;;;;2256470;56;20943;-64
2022/03/08 01:39:41;;;;;;;12.82;7.00;;;2.70;33.90;;;;;;2272337;54;20987;-63
2022/03/08 01:42:13;;;;;;;13.43;7.22;;;2.70;33.90;;;;;;2294422;54;21050;-63
2022/03/08 01:44:40;;;;;;;15.20;7.35;;;2.60;33.80;;;;;;2278928;56;21497;-64
2022/03/08 01:47:07;;;;;;;12.32;6.87;;;2.50;33.80;;;;;;2282809;55;20973;-65
2022/03/08 01:49:33;;;;;;;16.10;7.82;;;2.50;33.90;;;;;;2278263;54;21003;-66
2022/03/08 01:51:59;;;;;;;14.38;7.75;;;2.40;33.80;;;;;;2273317;54;21502;-64
2022/03/08 01:54:26;;;;;;;16.48;7.97;;;2.40;33.90;;;;;;2277605;55;21065;-64
2022/03/08 01:56:53;;;;;;;15.60;7.60;;;2.30;33.90;;;;;;2257919;56;20955;-65
2022/03/08 01:59:19;;;;;;;14.15;7.10;;;2.20;33.90;;;;;;2258877;54;20970;-64
2022/03/08 02:01:47;;;;;;;14.70;7.65;;;2.20;33.90;;;;;;2502054;54;20939;-63
2022/03/08 02:04:14;;;;;;;17.00;7.95;;;2.10;33.90;;;;;;2280866;55;21079;-64
2022/03/08 02:06:40;;;;;;;15.85;7.75;;;2.10;34.00;;;;;;2280852;56;20970;-64
2022/03/08 02:09:06;;;;;;;14.13;7.47;;;2.00;34.00;;;;;;2279289;55;20950;-65
2022/03/08 02:11:32;;;;;;;12.52;6.37;;;1.90;34.00;;;;;;2280689;56;20974;-63
2022/03/08 02:13:59;;;;;;;15.13;7.80;;;1.90;34.10;;;;;;2279983;56;20978;-64
2022/03/08 02:16:26;;;;;;;15.25;7.70;;;1.90;34.10;;;;;;2233963;56;21076;-63
2022/03/08 02:18:55;;;;;;;12.63;6.57;;;1.80;34.10;;;;;;2303388;55;20945;-64
2022/03/08 02:21:22;;;;;;;14.73;7.10;;;1.80;34.20;;;;;;2258990;56;21076;-64
2022/03/08 02:23:48;;;;;;;15.60;7.45;;;1.70;34.20;;;;;;2273174;55;21074;-65
2022/03/08 02:26:14;;;;;;;13.18;6.87;;;1.70;34.30;;;;;;2264490;55;20988;-65
2022/03/08 02:28:41;;;;;;;14.40;7.32;;;1.60;34.30;;;;;;2270479;55;20971;-64
2022/03/08 02:31:07;;;;;;;13.95;6.87;;;1.60;34.30;;;;;;2259003;56;20937;-64
2022/03/08 02:33:34;;;;;;;15.15;7.53;;;1.60;34.40;;;;;;2258632;55;21024;-65
2022/03/08 02:36:00;;;;;;;17.37;8.82;;;1.50;34.30;;;;;;2277298;55;21413;-64
2022/03/08 02:38:27;;;;;;;14.98;7.25;;;1.50;34.50;;;;;;2258123;56;21028;-63
2022/03/08 02:40:53;;;;;;;13.32;6.75;;;1.50;34.60;;;;;;2258888;56;20971;-65
2022/03/08 02:43:20;;;;;;;14.40;7.70;;;1.40;34.60;;;;;;2258163;56;20959;-66
2022/03/08 02:45:46;;;;;;;13.35;7.07;;;1.40;34.60;;;;;;2258595;56;21085;-64
2022/03/08 02:48:13;;;;;;;14.80;6.95;;;1.40;34.70;;;;;;2258488;56;20948;-64
2022/03/08 02:50:39;;;;;;;14.80;7.32;;;1.40;34.80;;;;;;2260925;55;22005;-64
2022/03/08 02:53:06;;;;;;;14.40;7.25;;;1.40;34.80;;;;;;2258634;56;21033;-66
2022/03/08 02:55:33;;;;;;;13.50;6.47;;;1.40;34.90;;;;;;2416221;55;20950;-64
2022/03/08 02:58:06;;;;;;;13.20;7.35;;;1.30;34.80;;;;;;2274668;54;21021;-64
2022/03/08 03:00:33;;;;;;;13.93;7.72;;;1.40;35.00;;;;;;2482320;55;21066;-65
2022/03/08 03:03:00;;;;;;;15.98;7.70;;;1.30;34.90;;;;;;2276242;56;21430;-64
2022/03/08 03:05:26;;;;;;;13.85;6.53;;;1.40;35.10;;;;;;2289238;56;20979;-65
2022/03/08 03:07:56;;;;;;;14.55;6.45;;;1.40;35.20;;;;;;2289030;56;20964;-64
2022/03/08 03:10:23;;;;;;;12.23;5.97;;;1.40;35.10;;;;;;2405038;55;21743;-64
2022/03/08 03:12:50;;;;;;;14.05;6.35;;;1.40;35.10;;;;;;2289016;56;21019;-64
2022/03/08 03:15:19;;;;;;;15.25;6.97;;;1.30;35.00;;;;;;2523346;55;21043;-65
2022/03/08 03:17:45;;;;;;;13.73;6.70;;;1.30;35.00;;;;;;2289184;56;20969;-63
2022/03/08 03:20:13;;;;;;;11.93;6.53;;;1.30;35.00;;;;;;2511022;55;20928;-65
2022/03/08 03:22:40;;;;;;;13.38;6.47;;;1.30;35.00;;;;;;2289160;56;20972;-64
2022/03/08 03:25:06;;;;;;;12.88;6.70;;;1.30;35.00;;;;;;2430272;55;21732;-64
2022/03/08 03:27:33;;;;;;;13.57;6.95;;;1.30;35.00;;;;;;2289546;56;20956;-63
2022/03/08 03:29:59;;;;;;;12.82;6.05;;;1.30;35.10;;;;;;2292278;55;20971;-64
2022/03/08 03:32:29;;;;;;;10.70;5.45;;;1.20;35.00;;;;;;2289403;56;20964;-64
2022/03/08 03:34:56;;;;;;;12.82;5.97;;;1.20;35.10;;;;;;2490824;55;21025;-65
2022/03/08 03:37:23;;;;;;;11.50;5.93;;;1.20;35.10;;;;;;2287251;56;21763;-64
2022/03/08 03:39:50;;;;;;;12.50;6.32;;;1.20;35.10;;;;;;2457100;55;20948;-65
2022/03/08 03:42:17;;;;;;;11.40;5.62;;;1.20;35.20;;;;;;2287451;56;20976;-65
2022/03/08 03:44:43;;;;;;;10.38;6.12;;;1.10;35.10;;;;;;2363036;55;20948;-65
2022/03/08 03:47:10;;;;;;;10.60;5.90;;;1.10;35.20;;;;;;2287638;56;20960;-64
2022/03/08 03:49:36;;;;;;;34.45;14.55;;;1.10;35.20;;;;;;2522252;55;20984;-64
2022/03/08 03:52:04;;;;;;;23.17;11.50;;;1.10;35.30;;;;;;2287086;55;21013;-64
2022/03/08 03:54:31;;;;;;;20.25;9.68;;;1.00;35.20;;;;;;2266821;56;20927;-64
2022/03/08 03:56:57;;;;;;;16.77;7.95;;;1.00;35.20;;;;;;2287275;56;20995;-64
2022/03/08 03:59:23;;;;;;;17.25;7.00;;;1.00;35.30;;;;;;2321793;55;21994;-63
2022/03/08 04:01:50;;;;;;;11.30;6.22;;;1.00;35.30;;;;;;2275182;56;21532;-64
2022/03/08 04:04:17;;;;;;;11.27;5.45;;;1.00;35.30;;;;;;2508754;55;21007;-64
2022/03/08 04:06:43;;;;;;;11.80;5.32;;;1.00;35.30;;;;;;2289186;55;20972;-63
2022/03/08 04:09:13;;;;;;;10.45;5.35;;;1.00;35.30;;;;;;2429213;55;20927;-65
2022/03/08 04:11:39;;;;;;;12.40;5.85;;;0.90;35.30;;;;;;2263858;56;21601;-65
2022/03/08 04:14:05;;;;;;;12.50;6.45;;;0.90;35.30;;;;;;2496534;55;21007;-65
2022/03/08 04:16:34;;;;;;;11.50;5.57;;;0.90;35.30;;;;;;2277001;56;21036;-64
2022/03/08 04:19:00;;;;;;;14.32;6.45;;;0.90;35.40;;;;;;2461465;55;21751;-64
2022/03/08 04:21:27;;;;;;;11.93;5.85;;;0.90;35.40;;;;;;2249831;56;20968;-63
2022/03/08 04:23:53;;;;;;;10.85;5.60;;;0.80;35.40;;;;;;2424213;55;21590;-63
2022/03/08 04:26:20;;;;;;;11.48;5.32;;;0.80;35.40;;;;;;2258755;56;20957;-65
2022/03/08 04:28:46;;;;;;;10.85;5.37;;;0.60;35.30;;;;;;2367716;55;20961;-65
2022/03/08 04:31:12;;;;;;;11.57;6.18;;;0.70;35.40;;;;;;2282871;56;21021;-63
2022/03/08 04:33:39;;;;;;;11.27;5.93;;;0.70;35.40;;;;;;2255147;55;20982;-64
2022/03/08 04:36:05;;;;;;;9.75;5.68;;;0.70;35.50;;;;;;2266001;56;20967;-63
2022/03/08 04:38:32;;;;;;;10.45;5.78;;;0.60;35.50;;;;;;2475703;55;21001;-64
2022/03/08 04:41:02;;;;;;;12.25;5.65;;;0.60;35.50;;;;;;2266391;56;21814;-64
2022/03/08 04:43:29;;;;;;;11.00;5.80;;;0.60;35.60;;;;;;2260366;56;20970;-63
2022/03/08 04:45:57;;;;;;;12.23;5.85;;;0.60;35.70;;;;;;2510449;55;21532;-63
2022/03/08 04:48:24;;;;;;;13.82;5.62;;;0.60;35.70;;;;;;2404778;55;20990;-63
2022/03/08 04:50:51;;;;;;;12.90;5.93;;;0.60;35.70;;;;;;2281734;56;20982;-63
2022/03/08 04:53:17;;;;;;;12.35;5.82;;;0.50;35.60;;;;;;2514897;55;20958;-63
2022/03/08 04:55:45;;;;;;;11.68;5.50;;;0.50;35.70;;;;;;2282104;56;20931;-63
2022/03/08 04:58:11;;;;;;;12.43;5.93;;;0.50;35.70;;;;;;2322814;56;21506;-64
2022/03/08 05:00:38;;;;;;;13.73;6.22;;;0.40;35.70;;;;;;2254287;56;21700;-65
2022/03/08 05:03:05;;;;;;;12.90;6.20;;;0.40;35.80;;;;;;2309581;55;21068;-64
2022/03/08 05:05:33;;;;;;;12.88;6.10;;;0.40;35.80;;;;;;2256731;56;20977;-65
2022/03/08 05:07:59;;;;;;;12.37;6.18;;;0.40;35.80;;;;;;2418187;55;20957;-65
2022/03/08 05:10:29;;;;;;;11.63;5.90;;;0.40;35.90;;;;;;2256603;56;22165;-64
2022/03/08 05:12:55;;;;;;;9.65;5.10;;;0.40;36.00;;;;;;2420236;55;21709;-65
2022/03/08 05:15:21;;;;;;;9.13;4.90;;;0.40;36.00;;;;;;2256470;56;21900;-64
2022/03/08 05:17:48;;;;;;;9.90;4.97;;;0.40;36.00;;;;;;2256435;56;21055;-64
2022/03/08 05:20:15;;;;;;;13.10;6.32;;;0.40;36.00;;;;;;2232267;56;20988;-65
2022/03/08 05:22:41;;;;;;;11.15;5.93;;;0.40;36.10;;;;;;2481011;55;21043;-64
2022/03/08 05:25:09;;;;;;;14.87;6.68;;;0.30;36.00;;;;;;2247859;55;21092;-65
2022/03/08 05:27:38;;;;;;;11.30;5.87;;;0.30;36.10;;;;;;2287034;55;21776;-65
2022/03/08 05:30:06;;;;;;;12.35;6.30;;;0.30;36.70;;;;;;2282087;56;21463;-64
2022/03/08 05:32:33;;;;;;;12.07;6.05;;;0.30;36.10;;;;;;2408349;55;20970;-64
2022/03/08 05:34:59;;;;;;;12.98;7.05;;;0.30;36.20;;;;;;2281431;56;21042;-64
2022/03/08 05:37:26;;;;;;;16.23;7.28;;;0.20;36.10;;;;;;2345503;55;21025;-62
2022/03/08 05:39:55;;;;;;;17.35;7.68;;;0.20;36.10;;;;;;2255724;56;20953;-64
2022/03/08 05:42:21;;;;;;;21.23;8.50;;;0.20;36.20;;;;;;2346723;55;20941;-63
2022/03/08 05:44:48;;;;;;;17.17;8.32;;;0.20;36.70;;;;;;2364882;55;20963;-65
2022/03/08 05:47:14;;;;;;;16.20;8.25;;;0.10;36.90;;;;;;2483053;55;21042;-64
2022/03/08 05:49:41;;;;;;;14.52;6.75;;;0.10;36.40;;;;;;2280174;56;20922;-65
2022/03/08 05:52:08;;;;;;;15.48;6.75;;;0.10;37.00;;;;;;2302556;55;20953;-63
2022/03/08 05:54:35;;;;;;;14.45;7.15;;;0.10;36.40;;;;;;2276024;56;21475;-65
2022/03/08 05:57:02;;;;;;;14.40;7.05;;;0.10;36.40;;;;;;2481247;55;21898;-65
2022/03/08 05:59:29;;;;;;;16.05;7.10;;;0.00;36.40;;;;;;2461177;55;20983;-65
2022/03/08 06:01:55;;;;;;;17.70;6.82;;;0.00;36.50;;;;;;2504470;55;20954;-65
2022/03/08 06:04:22;;;;;;;13.75;6.22;;;0.00;36.50;;;;;;2281899;56;20962;-65
2022/03/08 06:06:50;;;;;;;13.32;6.45;;;0.00;36.50;;;;;;2393324;55;20962;-65
2022/03/08 06:09:17;;;;;;;13.13;6.22;;;0.00;36.60;;;;;;2268138;56;20961;-63
2022/03/08 06:11:43;;;;;;;11.73;6.32;;;0.00;36.60;;;;;;2340098;55;20966;-65
2022/03/08 06:14:10;;;;;;;12.43;5.62;;;0.00;36.80;;;;;;2277386;56;20998;-65
2022/03/08 06:16:36;;;;;;;12.07;5.78;;;0.00;36.80;;;;;;2363705;56;20934;-64
2022/03/08 06:19:03;;;;;;;10.82;5.87;;;0.00;36.90;;;;;;2282200;56;21026;-65
2022/03/08 06:21:31;;;;;;;12.98;6.18;;;0.00;36.90;;;;;;2516423;55;21089;-64
2022/03/08 06:23:58;;;;;;;11.73;6.25;;;0.00;36.90;;;;;;2515010;55;20978;-63
2022/03/08 06:26:24;;;;;;;18.60;7.43;;;0.00;36.90;;;;;;2290508;55;21424;-64
2022/03/08 06:28:51;;;;;;;15.20;6.60;;;0.00;37.00;;;;;;2281610;56;20942;-64
2022/03/08 06:31:18;;;;;;;11.55;5.80;;;0.00;37.00;;;;;;2368810;55;21561;-64
2022/03/08 06:33:45;;;;;;;12.30;5.53;;;0.00;37.10;;;;;;2279659;56;21595;-65
2022/03/08 06:36:12;;;;;;;12.70;5.00;;;0.00;37.10;;;;;;2357774;55;21002;-64
2022/03/08 06:38:38;;;;;;;11.43;5.15;;;0.10;37.20;;;;;;2282704;56;20982;-64
2022/03/08 06:41:04;;;;;;;9.52;5.00;;;0.10;37.20;;;;;;2253215;56;21022;-63
2022/03/08 06:43:31;;;;;;;10.98;5.80;;;0.10;37.20;;;;;;2282313;56;21019;-64
2022/03/08 06:45:57;;;;;;;9.95;5.12;;;0.10;37.30;;;;;;2361400;55;21056;-65
2022/03/08 06:48:24;;;;;;;10.70;5.50;;;0.20;37.40;;;;;;2273059;56;20985;-65
2022/03/08 06:50:51;;;;;;;10.57;5.72;;;0.20;37.40;;;;;;2515549;55;21073;-64
2022/03/08 06:53:18;;;;;;;10.00;5.30;;;0.30;37.50;;;;;;2282757;56;20978;-64
2022/03/08 06:55:44;;;;;;;10.93;5.65;;;0.30;37.50;;;;;;2410006;55;21614;-66
2022/03/08 07:01:38;;;;;;;10.70;5.30;;;0.40;37.80;;;;;;2355376;55;20982;-65
2022/03/08 07:04:05;;;;;;;10.13;5.07;;;0.50;37.70;;;;;;2279392;56;21034;-63
2022/03/08 07:06:31;;;;;;;12.75;6.03;;;0.60;38.30;;;;;;2362764;55;21464;-64
2022/03/08 07:09:20;;;;;;;11.98;5.80;;;0.70;37.80;;;;;;2278219;56;20978;-63
2022/03/08 07:11:47;;;;;;;13.30;5.75;;;0.80;38.00;;;;;;2340207;55;20929;-63
2022/03/08 07:14:15;;;;;;;10.70;5.55;;;0.90;37.90;;;;;;2282278;56;20942;-64
2022/03/08 07:16:42;;;;;;;11.27;5.53;;;1.00;37.90;;;;;;2376860;56;21061;-65
2022/03/08 07:19:09;;;;;;;12.20;5.53;;;1.00;37.80;;;;;;2260393;56;21378;-65
2022/03/08 07:21:36;;;;;;;12.20;5.70;;;1.10;37.80;;;;;;2304672;55;20945;-65
2022/03/08 07:24:03;;;;;;;9.88;5.32;;;1.20;37.90;;;;;;2256640;56;21082;-63
2022/03/08 07:26:30;;;;;;;10.00;5.00;;;1.20;37.80;;;;;;2403223;55;21021;-64
2022/03/08 07:28:56;;;;;;;10.85;5.40;;;1.40;37.80;;;;;;2281952;56;21014;-64
2022/03/08 07:31:22;;;;;;;9.32;5.00;;;1.50;37.80;;;;;;2274423;56;21023;-64
2022/03/08 07:33:51;;;;;;;12.73;5.82;;;1.60;37.90;;;;;;2250809;56;20981;-65
2022/03/08 07:36:18;;;;;;;13.55;5.90;;;1.70;37.90;;;;;;2320037;55;22015;-65
2022/03/08 07:38:44;;;;;;;12.07;5.87;;;1.80;37.90;;;;;;2415228;55;21424;-64
2022/03/08 07:41:11;;;;;;;11.57;6.10;;;1.90;38.00;;;;;;2379216;55;21560;-64
2022/03/08 07:43:37;;;;;;;11.98;6.40;;;1.90;38.60;;;;;;2273449;56;21065;-64
2022/03/08 07:46:04;;;;;;;12.52;6.30;;;2.00;38.00;;;;;;2272063;56;20958;-64
2022/03/08 07:48:30;;;;;;;14.20;7.03;;;2.10;38.10;;;;;;2257006;56;21018;-64
2022/03/08 07:50:57;;;;;;;13.40;7.22;;;2.20;38.10;;;;;;2392032;55;21574;-63
2022/03/08 07:53:25;;;;;;;14.65;7.10;;;2.30;38.10;;;;;;2470288;55;21456;-64
2022/03/08 07:55:52;;;;;;;18.52;8.85;;;2.40;38.00;;;;;;2285513;55;21797;-64
2022/03/08 07:58:20;;;;;;;16.98;8.55;;;2.50;38.10;;;;;;2267903;56;21006;-63
2022/03/08 08:00:46;;;;;;;17.12;8.60;;;2.60;38.30;;;;;;2299555;55;20925;-62
2022/03/08 08:03:16;;;;;;;18.02;9.43;;;2.70;38.40;;;;;;2421464;55;21792;-64
2022/03/08 08:05:43;;;;;;;18.67;9.35;;;2.80;38.40;;;;;;2266581;56;20922;-63
2022/03/08 08:08:09;;;;;;;21.15;8.85;;;2.80;38.30;;;;;;2277659;56;20946;-64
2022/03/08 08:10:35;;;;;;;18.65;8.80;;;2.90;38.40;;;;;;2282726;56;20978;-65
2022/03/08 08:13:02;;;;;;;17.80;9.20;;;2.90;38.40;;;;;;2281632;56;21924;-63
2022/03/08 08:15:28;;;;;;;17.75;8.35;;;3.00;38.40;;;;;;2276766;56;20972;-65
2022/03/08 08:17:58;;;;;;;17.58;8.95;;;3.10;38.50;;;;;;2261673;56;20978;-63
2022/03/08 08:20:25;;;;;;;14.35;8.25;;;3.20;38.60;;;;;;2282598;56;20950;-65
2022/03/08 08:22:51;;;;;;;17.27;9.15;;;3.20;38.60;;;;;;2279874;55;21153;-65
2022/03/08 08:25:18;;;;;;;16.25;8.95;;;3.30;38.60;;;;;;2259668;56;20955;-64
2022/03/08 08:27:44;;;;;;;15.27;8.77;;;3.50;38.90;;;;;;2282325;56;21454;-63
2022/03/08 08:30:12;;;;;;;15.85;9.70;;;3.70;39.40;;;;;;2258972;56;21415;-63
2022/03/08 08:32:44;;;;;;;16.58;9.32;;;3.90;39.80;;;;;;2345212;55;20973;-65
2022/03/08 08:35:11;;;;;;;14.10;8.10;;;4.20;40.10;;;;;;2282450;56;21895;-63
2022/03/08 08:37:38;;;;;;;15.40;8.15;;;4.60;40.30;;;;;;2282514;56;21010;-65
2022/03/08 08:40:05;;;;;;;13.65;8.13;;;4.90;40.40;;;;;;2282299;56;21061;-65
2022/03/08 08:42:32;;;;;;;14.40;7.43;;;5.20;40.60;;;;;;2262461;56;20962;-65
2022/03/08 08:45:01;;;;;;;13.55;7.28;;;5.50;40.60;;;;;;2276057;56;21002;-63
2022/03/08 08:47:28;;;;;;;12.82;7.93;;;5.80;41.20;;;;;;2263747;56;21005;-64
2022/03/08 08:49:56;;;;;;;14.40;7.35;;;6.10;40.70;;;;;;2275304;56;20962;-64
2022/03/08 08:52:23;;;;;;;13.15;6.97;;;6.50;40.70;;;;;;2427699;55;20966;-65
2022/03/08 08:54:49;;;;;;;12.18;7.10;;;6.80;40.70;;;;;;2255774;56;20982;-65
2022/03/08 08:57:18;;;;;;;12.13;7.53;;;7.10;40.40;;;;;;2282577;56;20977;-64
2022/03/08 09:00:05;;;;;;;9.73;6.30;;;7.50;40.30;;;;;;2295897;55;21812;-64
2022/03/08 09:02:32;;;;;;;13.23;7.18;;;7.70;40.00;;;;;;2263201;56;21042;-64
2022/03/08 09:05:01;;;;;;;10.52;6.62;;;7.90;39.70;;;;;;2256613;56;20944;-64
2022/03/08 09:07:27;;;;;;;10.07;6.35;;;8.10;39.30;;;;;;2281981;56;20950;-65
2022/03/08 09:09:57;;;;;;;9.73;5.90;;;8.30;38.90;;;;;;2282301;56;21105;-65
2022/03/08 09:12:26;;;;;;;9.90;5.68;;;8.40;38.50;;;;;;2283090;56;21042;-65
2022/03/08 09:14:54;;;;;;;14.00;7.53;;;8.50;38.30;;;;;;2288522;55;21007;-65
2022/03/08 09:17:21;;;;;;;11.85;6.95;;;8.60;38.20;;;;;;2257195;56;21462;-66
2022/03/08 09:20:15;;;;;;;10.13;5.30;;;8.70;38.20;;;;;;2274333;56;21041;-66
2022/03/08 09:22:52;;;;;;;8.50;4.37;;;8.90;37.40;;;;;;2273223;56;20974;-65
2022/03/08 09:25:18;;;;;;;7.37;4.22;;;9.00;37.90;;;;;;2282993;56;21542;-64
2022/03/08 09:27:58;;;;;;;7.82;4.65;;;9.20;37.90;;;;;;2253834;56;21078;-65
2022/03/08 09:31:17;;;;;;;6.78;4.12;;;9.30;37.80;;;;;;2271533;56;20969;-66
2022/03/08 09:35:24;;;;;;;6.28;3.28;;;9.50;37.80;;;;;;2297361;55;20989;-65
2022/03/08 09:39:02;;;;;;;5.40;3.33;;;9.80;38.20;;;;;;2276201;56;20985;-65
2022/03/08 09:42:02;;;;;;;;;;;;;;;;;;;;;
2022/03/08 09:44:36;;;;;;;6.10;3.65;;;10.50;37.70;;;;;;2278854;55;21002;-66
2022/03/08 09:54:58;;;;;;;5.62;3.70;;;11.40;36.60;;;;;;2258301;56;20957;-64
2022/03/08 09:58:48;;;;;;;5.70;3.47;;;11.80;37.10;;;;;;2287431;55;21001;-65
2022/03/08 10:18:33;;;;;;;4.97;3.12;;;12.80;37.00;;;;;;2272630;56;21647;-65
2022/03/08 10:21:00;;;;;;;4.10;2.70;;;15.30;37.80;;;;;;2276681;55;21014;-66
2022/03/08 10:23:46;;;;;;;10.88;6.37;;;15.70;38.40;;;;;;2292049;55;20978;-67
2022/03/08 10:26:18;;;;;;;7.62;5.20;;;16.00;37.50;;;;;;2277302;56;21011;-67
2022/03/08 10:28:51;;;;;;;8.23;5.70;;;16.30;37.40;;;;;;2264874;56;21018;-67
2022/03/08 10:36:16;;;;;;;5.90;3.85;;;17.00;35.50;;;;;;2284857;56;20962;-66
2022/03/08 10:42:18;;;;;;;5.47;3.15;;;18.00;34.50;;;;;;2269387;56;21029;-68
2022/03/08 10:44:48;;;;;;;4.80;3.00;;;18.40;35.80;;;;;;2279107;56;21038;-68
2022/03/08 10:47:30;;;;;;;5.62;3.10;;;18.70;35.00;;;;;;2311650;55;20942;-66
2022/03/08 10:49:59;;;;;;;4.97;3.10;;;19.00;33.90;;;;;;2275961;55;20993;-68
2022/03/08 10:56:10;;;;;;;5.12;3.17;;;19.60;34.00;;;;;;2279113;56;21076;-66
2022/03/08 11:00:25;;;;;;;4.95;3.10;;;19.90;32.00;;;;;;2267515;56;21770;-67
2022/03/08 11:41:22;;;;;;;3.92;2.47;;;20.00;31.50;;;;;;2285043;56;20989;-66
2022/03/08 11:44:22;;;;;;;4.07;2.53;;;19.20;30.40;;;;;;2258146;55;21048;-66
2022/03/08 11:54:36;;;;;;;4.78;2.90;;;19.20;30.50;;;;;;2256459;56;20987;-68
2022/03/08 11:57:03;;;;;;;4.60;2.65;;;19.20;29.80;;;;;;2243480;56;21032;-68
2022/03/08 11:59:30;;;;;;;4.47;2.80;;;19.20;29.80;;;;;;2255632;56;21064;-66
2022/03/08 12:02:02;;;;;;;6.10;3.10;;;19.10;29.30;;;;;;2252645;56;20981;-66
2022/03/08 12:04:48;;;;;;;4.25;2.75;;;19.00;28.80;;;;;;2283808;56;21791;-68
2022/03/08 12:07:30;;;;;;;6.47;3.33;;;19.00;29.10;;;;;;2282604;56;21433;-67
2022/03/08 12:10:23;;;;;;;5.03;3.22;;;18.90;28.60;;;;;;2294154;55;21745;-68
2022/03/08 12:12:58;;;;;;;5.03;3.50;;;19.00;28.10;;;;;;2272596;56;20989;-69
2022/03/08 12:15:26;;;;;;;4.80;3.12;;;18.90;28.60;;;;;;2263447;56;20973;-67
2022/03/08 12:19:46;;;;;;;5.60;3.15;;;18.90;28.40;;;;;;2254803;56;21999;-68
2022/03/08 12:25:09;;;;;;;4.55;2.97;;;18.90;28.20;;;;;;2256797;56;20965;-67
2022/03/08 12:27:46;;;;;;;4.32;2.85;;;18.90;28.00;;;;;;2280154;56;21045;-66
2022/03/08 12:31:04;;;;;;;4.45;2.95;;;18.80;28.40;;;;;;2270491;56;21083;-67
2022/03/08 12:34:43;;;;;;;5.25;2.90;;;18.90;28.60;;;;;;2270538;55;21562;-67
2022/03/08 12:37:46;;;;;;;4.80;2.85;;;18.90;27.90;;;;;;2380418;55;21017;-68
2022/03/08 12:40:37;;;;;;;4.53;3.12;;;18.80;28.40;;;;;;2267002;56;20978;-67
2022/03/08 12:43:10;;;;;;;5.03;2.97;;;18.90;28.00;;;;;;2278460;56;21358;-66
2022/03/08 12:45:45;;;;;;;5.15;3.20;;;18.90;27.80;;;;;;2281269;56;21448;-67
2022/03/08 12:48:20;;;;;;;6.32;3.47;;;18.90;27.70;;;;;;2266125;56;20997;-68
2022/03/08 12:52:30;;;;;;;4.20;2.75;;;19.00;27.70;;;;;;2261092;56;21050;-66
2022/03/08 12:55:19;;;;;;;4.45;2.50;;;19.20;27.50;;;;;;2363035;55;21986;-67
2022/03/08 12:58:05;;;;;;;4.50;2.70;;;19.40;28.20;;;;;;2286797;56;21137;-65
2022/03/08 13:00:41;;;;;;;5.15;2.70;;;19.60;27.50;;;;;;2364549;55;20970;-67
2022/03/08 13:03:13;;;;;;;6.43;2.97;;;19.70;28.00;;;;;;2258159;56;20985;-66
2022/03/08 13:05:41;;;;;;;4.62;2.95;;;19.80;27.70;;;;;;2284345;56;21423;-66
2022/03/08 13:08:30;;;;;;;6.12;3.40;;;19.90;27.70;;;;;;2283951;56;21014;-65
2022/03/08 13:11:04;;;;;;;4.70;2.87;;;20.00;27.70;;;;;;2280506;56;20980;-65
2022/03/08 13:13:43;;;;;;;4.75;2.75;;;20.10;27.30;;;;;;2293913;55;20953;-66
2022/03/08 13:16:21;;;;;;;4.97;2.95;;;20.20;27.40;;;;;;2316259;55;21022;-66
2022/03/08 13:18:48;;;;;;;4.68;3.17;;;20.30;26.80;;;;;;2278539;56;21062;-67
2022/03/08 13:21:16;;;;;;;4.80;2.83;;;20.30;27.00;;;;;;2271556;55;2527259;-68
2022/03/08 13:23:47;;;;;;;4.62;2.80;;;20.20;26.70;;;;;;2259340;56;20964;-66
2022/03/08 13:29:03;;;;;;;4.45;2.92;;;20.20;26.50;;;;;;2288103;55;21046;-67
2022/03/08 13:32:26;;;;;;;4.87;3.20;;;20.20;26.40;;;;;;2272626;56;20977;-67
2022/03/08 13:35:58;;;;;;;5.00;3.10;;;20.00;25.60;;;;;;2333431;55;20965;-68
2022/03/08 13:39:10;;;;;;;5.05;2.58;;;19.80;25.70;;;;;;2282194;56;20974;-67
2022/03/08 13:41:40;;;;;;;4.63;2.80;;;19.60;25.10;;;;;;2232347;56;20999;-66
2022/03/08 13:44:15;;;;;;;4.30;2.78;;;19.40;25.50;;;;;;2297800;55;22334;-67
2022/03/08 13:46:46;;;;;;;4.70;2.87;;;19.20;25.20;;;;;;2284217;56;21326;-68
2022/03/08 13:49:18;;;;;;;4.22;2.83;;;19.00;25.20;;;;;;2306817;55;22079;-68
2022/03/08 13:58:02;;;;;;;4.72;2.92;;;18.60;25.00;;;;;;2282850;56;20970;-68
2022/03/08 14:04:05;;;;;;;5.30;3.53;;;18.30;24.80;;;;;;2336110;55;20941;-71
2022/03/08 14:06:57;;;;;;;7.65;3.08;;;18.10;25.70;;;;;;2213915;56;20961;-69
2022/03/08 14:09:27;;;;;;;6.65;3.53;;;18.00;25.30;;;;;;2265237;56;20986;-69
2022/03/08 14:12:10;;;;;;;6.00;3.30;;;17.90;25.40;;;;;;2314289;56;21021;-67
2022/03/08 14:15:00;;;;;;;6.32;3.60;;;17.80;25.20;;;;;;2262798;56;21009;-68
2022/03/08 14:20:36;;;;;;;5.80;3.53;;;17.80;25.30;;;;;;2283505;56;21101;-67
2022/03/08 14:23:40;;;;;;;4.62;3.00;;;17.70;25.10;;;;;;2249677;56;21020;-66
2022/03/08 14:34:06;;;;;;;6.50;3.40;;;17.50;24.90;;;;;;2215355;56;21057;-66
2022/03/08 14:37:12;;;;;;;4.57;2.85;;;17.40;25.10;;;;;;2246106;56;21013;-66
2022/03/08 14:39:53;;;;;;;5.62;3.67;;;17.40;25.10;;;;;;2248074;57;20978;-66
2022/03/08 14:43:13;;;;;;;5.93;3.60;;;17.30;25.20;;;;;;2287593;56;20962;-66
2022/03/08 14:46:27;;;;;;;4.32;2.85;;;17.30;24.90;;;;;;2270545;55;21060;-68
2022/03/08 14:48:53;;;;;;;5.43;3.50;;;17.20;25.10;;;;;;2271829;56;21033;-68
2022/03/08 14:51:23;;;;;;;5.20;3.45;;;17.20;25.10;;;;;;2281574;55;20954;-66
2022/03/08 14:53:55;;;;;;;5.22;3.58;;;17.10;24.90;;;;;;2258191;56;21017;-67
2022/03/08 14:59:48;;;;;;;5.32;3.22;;;17.00;24.80;;;;;;2308907;55;21062;-66
2022/03/08 15:02:16;;;;;;;5.00;3.00;;;16.90;25.00;;;;;;2265412;56;20941;-66
2022/03/08 15:15:42;;;;;;;4.97;3.12;;;16.90;24.90;;;;;;2300630;55;20982;-66
2022/03/08 15:18:19;;;;;;;4.87;3.28;;;16.90;25.10;;;;;;2284027;56;21026;-65
2022/03/08 15:27:36;;;;;;;5.55;3.50;;;16.80;24.90;;;;;;2312715;56;21124;-68
2022/03/08 15:30:07;;;;;;;3.72;2.30;;;16.80;24.90;;;;;;2268631;56;21001;-64